Time;durP1;ratioP1;P1;durP2;ratioP2;P2;SDS_P1;SDS_P2;PMS_P1;PMS_P2;Temp;Humidity;BMP_temperature;BMP_pressure;BME280_temperature;BME280_humidity;BME280_pressure;Samples;Min_cycle;Max_cycle;Signal;HPM_P1;HPM_P2
2022/11/21 00:02:01;;;;;;;21.23;9.38;;;1.50;99.90;;;;;;4253192;27;20039;-84
2022/11/21 00:04:08;;;;;;;17.60;8.63;;;1.50;99.90;;;;;;4218048;28;20048;-84
2022/11/21 00:06:09;;;;;;;19.77;9.07;;;2.90;99.90;;;;;;4235566;28;20044;-83
2022/11/21 00:08:12;;;;;;;22.35;10.02;;;1.50;99.90;;;;;;4217987;28;20044;-84
2022/11/21 00:10:14;;;;;;;17.75;9.00;;;1.50;99.90;;;;;;4252747;27;20037;-84
2022/11/21 00:12:16;;;;;;;14.85;7.80;;;1.40;99.90;;;;;;4218397;28;20044;-85
2022/11/21 00:14:17;;;;;;;17.23;8.68;;;1.50;99.90;;;;;;4252852;27;20051;-84
2022/11/21 00:16:19;;;;;;;20.58;9.18;;;1.50;99.90;;;;;;4235045;28;20058;-84
2022/11/21 00:18:19;;;;;;;20.38;8.45;;;1.50;99.90;;;;;;4218018;28;20062;-85
2022/11/21 00:20:23;;;;;;;20.35;9.25;;;1.80;99.90;;;;;;4215334;28;20075;-85
2022/11/21 00:22:23;;;;;;;18.35;9.07;;;1.40;99.90;;;;;;4235016;28;20184;-84
2022/11/21 00:24:26;;;;;;;21.95;8.93;;;1.40;99.90;;;;;;4253332;27;20214;-84
2022/11/21 00:26:27;;;;;;;17.50;8.10;;;1.60;99.90;;;;;;4252949;27;20050;-84
2022/11/21 00:28:28;;;;;;;17.27;8.65;;;1.40;99.90;;;;;;4217600;28;20048;-84
2022/11/21 00:30:30;;;;;;;15.20;7.20;;;1.50;99.90;;;;;;4252990;27;20039;-84
2022/11/21 00:32:32;;;;;;;17.70;8.05;;;1.40;99.90;;;;;;4253517;27;20047;-85
2022/11/21 00:34:34;;;;;;;18.38;8.88;;;1.40;99.90;;;;;;4252214;27;20119;-84
2022/11/21 00:36:36;;;;;;;16.63;7.40;;;2.60;99.90;;;;;;4253824;27;20091;-84
2022/11/21 00:38:38;;;;;;;16.85;8.30;;;1.40;99.90;;;;;;4253454;27;20047;-84
2022/11/21 00:40:41;;;;;;;20.85;8.70;;;2.90;99.90;;;;;;4252575;27;20039;-85
2022/11/21 00:42:42;;;;;;;14.70;8.38;;;1.90;99.90;;;;;;4217985;28;20048;-84
2022/11/21 00:44:42;;;;;;;18.92;9.73;;;2.40;99.90;;;;;;4235043;28;20159;-85
2022/11/21 00:46:45;;;;;;;18.40;9.25;;;2.60;99.90;;;;;;4253502;27;20078;-85
2022/11/21 00:48:46;;;;;;;19.77;9.65;;;1.40;99.90;;;;;;4252784;27;20043;-84
2022/11/21 00:50:48;;;;;;;16.42;7.97;;;2.00;99.90;;;;;;4225902;28;20515;-85
2022/11/21 00:52:55;;;;;;;20.90;8.85;;;2.30;99.90;;;;;;4200833;28;20575;-84
2022/11/21 00:54:57;;;;;;;20.65;10.00;;;0.60;99.90;;;;;;4203888;28;20585;-85
2022/11/21 00:56:59;;;;;;;18.15;8.85;;;1.20;99.90;;;;;;4234888;28;20094;-85
2022/11/21 00:58:59;;;;;;;17.40;8.52;;;1.20;99.90;;;;;;4235243;28;20075;-84
2022/11/21 01:01:12;;;;;;;18.48;8.75;;;2.10;99.90;;;;;;4253052;27;20464;-84
2022/11/21 01:03:12;;;;;;;17.75;7.93;;;1.80;99.90;;;;;;4253460;27;20047;-85
2022/11/21 01:05:13;;;;;;;19.30;8.77;;;2.00;99.90;;;;;;4253390;27;20092;-84
2022/11/21 01:07:16;;;;;;;18.95;8.52;;;1.00;99.90;;;;;;4218022;28;20166;-84
2022/11/21 01:09:18;;;;;;;18.00;8.55;;;1.00;99.90;;;;;;4235223;28;20055;-84
2022/11/21 01:11:20;;;;;;;18.23;9.57;;;0.90;99.90;;;;;;4217971;28;20152;-84
2022/11/21 01:13:20;;;;;;;17.83;8.18;;;0.90;99.90;;;;;;4252873;27;20055;-84
2022/11/21 01:15:22;;;;;;;17.02;8.70;;;0.80;99.90;;;;;;4252382;27;20057;-84
2022/11/21 01:17:24;;;;;;;18.55;8.38;;;0.70;99.90;;;;;;4252941;27;20429;-84
2022/11/21 01:19:27;;;;;;;16.33;8.18;;;0.70;99.90;;;;;;4234700;28;20047;-85
2022/11/21 01:21:30;;;;;;;21.33;8.80;;;0.70;99.90;;;;;;4253271;27;20066;-84
2022/11/21 01:23:31;;;;;;;16.08;8.00;;;0.70;99.90;;;;;;4253464;27;20125;-84
2022/11/21 01:25:35;;;;;;;15.10;7.80;;;0.60;99.90;;;;;;4235105;28;20463;-84
2022/11/21 01:27:42;;;;;;;20.88;8.23;;;0.60;99.90;;;;;;4235610;28;20051;-85
2022/11/21 01:29:43;;;;;;;17.20;8.80;;;0.50;99.90;;;;;;4254130;27;20111;-84
2022/11/21 01:31:47;;;;;;;17.25;8.55;;;0.50;99.90;;;;;;4236096;28;20047;-84
2022/11/21 01:33:49;;;;;;;16.65;8.23;;;1.30;99.90;;;;;;4253767;27;20049;-84
2022/11/21 01:35:51;;;;;;;18.60;9.32;;;1.10;99.90;;;;;;4254144;27;20090;-84
2022/11/21 01:37:51;;;;;;;21.65;8.73;;;0.40;99.90;;;;;;4235515;28;20052;-84
2022/11/21 01:39:54;;;;;;;16.90;8.80;;;1.90;99.90;;;;;;4236302;28;20423;-84
2022/11/21 01:41:55;;;;;;;18.60;8.57;;;0.70;99.90;;;;;;4235995;28;20050;-84
2022/11/21 01:43:57;;;;;;;19.27;9.65;;;0.30;99.90;;;;;;4235331;28;20055;-84
2022/11/21 01:46:06;;;;;;;20.65;9.43;;;0.20;99.90;;;;;;4253901;28;20051;-84
2022/11/21 01:48:08;;;;;;;18.10;8.60;;;0.20;99.90;;;;;;4236179;28;20056;-84
2022/11/21 01:50:10;;;;;;;15.82;8.10;;;0.30;99.90;;;;;;4223095;28;20108;-85
2022/11/21 01:52:21;;;;;;;16.95;8.38;;;-0.80;99.90;;;;;;4237431;28;20067;-84
2022/11/21 01:54:53;;;;;;;17.85;8.48;;;0.10;99.90;;;;;;4237681;28;20046;-85
2022/11/21 01:56:58;;;;;;;16.42;8.85;;;0.10;99.90;;;;;;4237331;28;20569;-84
2022/11/21 01:59:02;;;;;;;18.70;8.98;;;-0.50;99.90;;;;;;4248980;28;20043;-84
2022/11/21 02:01:05;;;;;;;18.13;8.20;;;1.50;99.90;;;;;;4236275;28;20075;-84
2022/11/21 02:03:12;;;;;;;18.70;9.18;;;0.10;99.90;;;;;;4219791;28;20048;-84
2022/11/21 02:05:36;;;;;;;19.42;9.07;;;1.60;99.90;;;;;;4254426;28;20061;-84
2022/11/21 02:07:42;;;;;;;19.20;9.15;;;0.00;99.90;;;;;;4220316;28;20090;-84
2022/11/21 02:09:54;;;;;;;18.27;9.07;;;0.00;99.90;;;;;;4255489;28;20043;-85
2022/11/21 02:12:19;;;;;;;18.08;9.32;;;0.10;99.90;;;;;;4256695;28;20040;-85
2022/11/21 02:14:22;;;;;;;21.05;9.70;;;0.00;99.90;;;;;;4255227;28;20043;-84
2022/11/21 02:16:27;;;;;;;15.82;8.23;;;0.00;99.90;;;;;;4256386;28;20047;-86
2022/11/21 02:18:28;;;;;;;18.77;10.15;;;0.00;99.90;;;;;;4237953;28;20073;-84
2022/11/21 02:20:31;;;;;;;22.38;9.40;;;0.10;99.90;;;;;;4255253;28;20065;-83
2022/11/21 02:23:08;;;;;;;22.38;9.50;;;0.00;99.90;;;;;;4222420;28;20059;-84
2022/11/21 02:25:16;;;;;;;22.35;9.30;;;0.90;99.90;;;;;;4259659;27;20040;-84
2022/11/21 02:27:18;;;;;;;23.73;9.27;;;0.10;99.90;;;;;;4259316;27;20054;-84
2022/11/21 02:29:20;;;;;;;20.98;8.95;;;1.20;99.90;;;;;;4258687;27;20039;-84
2022/11/21 02:31:23;;;;;;;23.77;10.45;;;-1.00;99.90;;;;;;4258755;27;20043;-84
2022/11/21 02:33:24;;;;;;;23.35;9.88;;;0.00;99.90;;;;;;4223773;28;20055;-84
2022/11/21 02:35:26;;;;;;;27.10;11.13;;;1.60;99.90;;;;;;4257693;27;20099;-85
2022/11/21 02:37:29;;;;;;;24.13;9.75;;;-0.10;99.90;;;;;;4223704;28;20052;-85
2022/11/21 02:39:37;;;;;;;23.27;10.32;;;1.00;99.90;;;;;;4258215;27;20047;-84
2022/11/21 02:41:50;;;;;;;24.75;9.73;;;-0.10;99.90;;;;;;4223339;28;20051;-84
2022/11/21 02:44:06;;;;;;;19.20;9.25;;;-0.90;99.90;;;;;;4223420;28;20047;-84
2022/11/21 02:46:09;;;;;;;21.23;9.55;;;-0.10;99.90;;;;;;4209594;28;20458;-84
2022/11/21 02:48:14;;;;;;;24.17;9.70;;;-0.20;99.90;;;;;;4258144;27;20046;-84
2022/11/21 02:50:28;;;;;;;26.02;9.85;;;0.50;99.90;;;;;;4239699;28;20493;-84
2022/11/21 02:52:29;;;;;;;19.13;9.70;;;0.50;99.90;;;;;;4258142;27;20100;-84
2022/11/21 02:54:32;;;;;;;23.45;10.77;;;-0.20;99.90;;;;;;4239715;28;20049;-84
2022/11/21 02:56:46;;;;;;;23.92;10.93;;;-0.30;99.90;;;;;;4257345;27;20042;-85
2022/11/21 02:58:56;;;;;;;20.85;10.20;;;1.00;99.90;;;;;;4223112;28;20080;-84
2022/11/21 03:00:57;;;;;;;21.40;9.90;;;-0.20;99.90;;;;;;4222718;28;20056;-84
2022/11/21 03:03:01;;;;;;;19.52;9.88;;;-0.20;99.90;;;;;;4239744;28;20039;-84
2022/11/21 03:05:05;;;;;;;25.33;9.93;;;-0.20;99.90;;;;;;4258315;27;20070;-84
2022/11/21 03:07:06;;;;;;;23.20;10.85;;;-0.20;99.90;;;;;;4223444;28;20055;-83
2022/11/21 03:09:07;;;;;;;22.20;10.88;;;-0.30;99.90;;;;;;4241192;28;20452;-85
2022/11/21 03:11:08;;;;;;;21.42;9.38;;;-0.10;99.90;;;;;;4253648;27;20092;-85
2022/11/21 03:13:09;;;;;;;23.38;10.07;;;-0.30;99.90;;;;;;4257782;27;20062;-85
2022/11/21 03:15:14;;;;;;;17.67;9.65;;;0.20;99.90;;;;;;4258354;27;20054;-84
2022/11/21 03:17:17;;;;;;;24.70;10.25;;;0.70;99.90;;;;;;4223402;28;20067;-84
2022/11/21 03:19:19;;;;;;;22.17;9.93;;;1.30;99.90;;;;;;4223749;28;20060;-84
2022/11/21 03:21:20;;;;;;;20.58;9.75;;;-0.40;99.90;;;;;;4223543;28;20074;-83
2022/11/21 03:23:22;;;;;;;23.55;10.50;;;-1.50;99.90;;;;;;4223160;28;20051;-84
2022/11/21 03:25:24;;;;;;;21.48;10.00;;;1.50;99.90;;;;;;4258013;27;20045;-84
2022/11/21 03:27:26;;;;;;;24.65;11.77;;;-0.70;99.90;;;;;;4240554;28;20044;-85
2022/11/21 03:29:27;;;;;;;21.52;10.55;;;-0.30;99.90;;;;;;4239913;28;20113;-85
2022/11/21 03:31:28;;;;;;;25.88;11.10;;;1.20;99.90;;;;;;4240623;28;20131;-84
2022/11/21 03:33:31;;;;;;;27.77;10.75;;;0.30;99.90;;;;;;4222206;28;20040;-84
2022/11/21 03:35:35;;;;;;;20.20;9.40;;;-0.40;99.90;;;;;;4258197;27;20039;-84
2022/11/21 03:37:38;;;;;;;24.90;11.70;;;-0.40;99.90;;;;;;4258231;27;20050;-84
2022/11/21 03:39:40;;;;;;;20.45;11.18;;;-0.50;99.90;;;;;;4240643;28;20050;-84
2022/11/21 03:41:42;;;;;;;20.67;10.50;;;-0.90;99.90;;;;;;4223410;28;20131;-84
2022/11/21 03:43:45;;;;;;;24.98;10.85;;;-0.50;99.90;;;;;;4240703;28;20584;-84
2022/11/21 03:45:48;;;;;;;21.73;9.73;;;-0.50;99.90;;;;;;4240015;28;20051;-84
2022/11/21 03:47:49;;;;;;;26.38;10.25;;;-0.40;99.90;;;;;;4223656;28;20044;-84
2022/11/21 03:49:53;;;;;;;22.17;10.52;;;-0.60;99.90;;;;;;4223633;28;20070;-85
2022/11/21 03:51:54;;;;;;;25.50;11.23;;;-0.60;99.90;;;;;;4223226;28;20067;-85
2022/11/21 03:54:02;;;;;;;23.88;11.45;;;-0.60;99.90;;;;;;4241066;27;20044;-84
2022/11/21 03:56:04;;;;;;;26.63;11.50;;;-0.60;99.90;;;;;;4257956;27;20043;-84
2022/11/21 03:58:09;;;;;;;25.70;11.98;;;-0.60;99.90;;;;;;4258628;27;20054;-85
2022/11/21 04:00:11;;;;;;;23.95;11.82;;;-0.50;99.90;;;;;;4258749;27;20039;-84
2022/11/21 04:02:20;;;;;;;27.15;10.98;;;-0.50;99.90;;;;;;4241714;28;20047;-84
2022/11/21 04:04:22;;;;;;;29.52;11.63;;;0.10;99.90;;;;;;4241505;28;20146;-84
2022/11/21 04:06:25;;;;;;;29.63;12.63;;;-0.50;99.90;;;;;;4240699;28;20058;-84
2022/11/21 04:08:27;;;;;;;26.08;12.05;;;-0.10;99.90;;;;;;4239941;28;20051;-84
2022/11/21 04:10:30;;;;;;;26.15;12.07;;;-0.30;99.90;;;;;;4222975;28;20048;-84
2022/11/21 04:12:37;;;;;;;28.25;11.65;;;-0.20;99.90;;;;;;4240843;28;20061;-84
2022/11/21 04:14:38;;;;;;;24.10;11.60;;;-0.20;99.90;;;;;;4258222;27;20078;-84
2022/11/21 04:16:41;;;;;;;26.42;12.05;;;1.30;99.90;;;;;;4222749;28;20048;-84
2022/11/21 04:18:46;;;;;;;26.58;12.65;;;-0.20;99.90;;;;;;4258076;27;20077;-83
2022/11/21 04:20:57;;;;;;;29.10;13.07;;;-0.10;99.90;;;;;;4240057;28;20151;-85
2022/11/21 04:23:00;;;;;;;25.50;11.02;;;-0.10;99.90;;;;;;4257365;27;20055;-84
2022/11/21 04:25:03;;;;;;;25.60;11.80;;;1.60;99.90;;;;;;4239115;28;20554;-84
2022/11/21 04:27:06;;;;;;;27.02;12.35;;;-0.20;99.90;;;;;;4239862;28;20043;-84
2022/11/21 04:29:07;;;;;;;26.20;12.32;;;-0.10;99.90;;;;;;4257750;27;20043;-84
2022/11/21 04:31:12;;;;;;;24.63;12.20;;;-0.10;99.90;;;;;;4213059;28;20173;-84
2022/11/21 04:33:16;;;;;;;39.97;13.60;;;0.00;99.90;;;;;;4221081;28;20059;-84
2022/11/21 04:35:18;;;;;;;27.20;11.20;;;0.00;99.90;;;;;;4239940;28;20080;-84
2022/11/21 04:37:20;;;;;;;27.13;10.95;;;0.70;99.90;;;;;;4227854;28;20075;-83
2022/11/21 04:39:25;;;;;;;23.80;11.90;;;0.00;99.90;;;;;;4257288;27;20040;-84
2022/11/21 04:41:27;;;;;;;21.77;10.80;;;0.90;99.90;;;;;;4221178;28;20052;-83
2022/11/21 04:43:29;;;;;;;20.60;9.80;;;0.00;99.90;;;;;;4237464;28;20051;-85
2022/11/21 04:45:31;;;;;;;23.05;9.85;;;1.40;99.90;;;;;;4256269;27;20061;-84
2022/11/21 04:47:37;;;;;;;23.27;10.07;;;0.10;99.90;;;;;;4256224;27;20039;-84
2022/11/21 04:49:44;;;;;;;17.77;9.23;;;0.20;99.90;;;;;;4256755;27;20501;-84
2022/11/21 04:51:48;;;;;;;19.88;9.60;;;0.10;99.90;;;;;;4221009;28;20087;-85
2022/11/21 04:53:49;;;;;;;21.73;9.82;;;0.40;99.90;;;;;;4221297;28;20044;-85
2022/11/21 04:55:50;;;;;;;21.63;10.98;;;1.20;99.90;;;;;;4256664;27;20042;-84
2022/11/21 04:57:52;;;;;;;21.80;9.10;;;0.20;99.90;;;;;;4238245;28;20044;-85
2022/11/21 04:59:56;;;;;;;21.98;9.38;;;1.50;99.90;;;;;;4221409;28;20484;-85
2022/11/21 05:01:58;;;;;;;21.58;9.95;;;1.40;99.90;;;;;;4220775;28;20087;-84
2022/11/21 05:04:03;;;;;;;19.35;9.52;;;0.20;99.90;;;;;;4241814;27;20040;-84
2022/11/21 05:06:08;;;;;;;20.75;9.88;;;0.10;99.90;;;;;;4256137;27;20414;-85
2022/11/21 05:08:11;;;;;;;21.33;9.52;;;1.70;99.90;;;;;;4221201;28;20050;-85
2022/11/21 05:10:12;;;;;;;23.60;9.48;;;0.00;99.90;;;;;;4221331;28;20052;-85
2022/11/21 05:14:34;;;;;;;20.73;9.00;;;0.70;99.90;;;;;;4255790;27;20095;-85
2022/11/21 05:16:36;;;;;;;22.67;9.40;;;-0.10;99.90;;;;;;4252815;27;20103;-85
2022/11/21 05:18:39;;;;;;;19.63;9.43;;;0.60;99.90;;;;;;4252183;27;20074;-84
2022/11/21 05:20:41;;;;;;;23.08;8.98;;;0.00;99.90;;;;;;4219477;28;20080;-84
2022/11/21 05:22:44;;;;;;;19.20;8.77;;;-1.40;99.90;;;;;;4226741;28;20048;-85
2022/11/21 05:24:47;;;;;;;21.80;9.45;;;-0.80;99.90;;;;;;4221106;28;20056;-84
2022/11/21 05:26:49;;;;;;;21.58;10.05;;;0.60;99.90;;;;;;4256367;27;20094;-84
2022/11/21 05:28:52;;;;;;;18.77;8.73;;;1.00;99.90;;;;;;4238000;28;20055;-84
2022/11/21 05:30:53;;;;;;;20.98;9.23;;;0.70;99.90;;;;;;4235776;28;20106;-84
2022/11/21 05:32:57;;;;;;;22.10;9.38;;;-1.40;99.90;;;;;;4238782;28;20407;-84
2022/11/21 05:34:59;;;;;;;22.10;9.73;;;-0.40;99.90;;;;;;4238588;28;20043;-85
2022/11/21 05:37:02;;;;;;;19.50;8.82;;;-0.40;99.90;;;;;;4241707;28;20130;-85
2022/11/21 05:39:04;;;;;;;19.55;8.52;;;-0.20;99.90;;;;;;4220371;28;20044;-83
2022/11/21 05:41:05;;;;;;;20.60;9.93;;;-1.50;99.90;;;;;;4256138;27;20127;-84
2022/11/21 05:45:39;;;;;;;20.05;9.27;;;-0.50;99.90;;;;;;4255693;27;20073;-84
2022/11/21 05:47:42;;;;;;;23.33;9.82;;;0.40;99.90;;;;;;4256290;28;20468;-84
2022/11/21 05:49:44;;;;;;;19.05;8.73;;;0.60;99.90;;;;;;4237507;28;20187;-84
2022/11/21 05:51:49;;;;;;;23.42;9.57;;;-0.70;99.90;;;;;;4256147;28;20411;-84
2022/11/21 05:53:55;;;;;;;23.15;10.02;;;-1.50;99.90;;;;;;4221049;28;20048;-84
2022/11/21 05:56:08;;;;;;;20.67;9.90;;;-0.70;99.90;;;;;;4221191;28;20174;-84
2022/11/21 05:58:12;;;;;;;22.95;9.63;;;-0.70;99.90;;;;;;4246257;27;20042;-85
2022/11/21 06:00:17;;;;;;;25.20;9.45;;;-0.40;99.90;;;;;;4242623;28;20059;-85
2022/11/21 06:04:39;;;;;;;20.42;9.30;;;-0.60;99.90;;;;;;4234234;28;20550;-84
2022/11/21 06:06:40;;;;;;;24.35;10.38;;;-0.70;99.90;;;;;;4223912;28;20028;-84
2022/11/21 06:08:45;;;;;;;19.73;9.00;;;-0.80;99.90;;;;;;4226000;28;20539;-85
2022/11/21 06:10:47;;;;;;;20.00;8.75;;;-0.80;99.90;;;;;;4262517;27;20066;-84
2022/11/21 06:12:47;;;;;;;19.73;9.02;;;0.60;99.90;;;;;;4265464;27;20068;-85
2022/11/21 06:14:48;;;;;;;20.73;10.07;;;-0.80;99.90;;;;;;4248316;28;20543;-85
2022/11/21 06:16:53;;;;;;;21.48;8.98;;;-1.90;99.90;;;;;;4232129;28;20047;-85
2022/11/21 06:18:56;;;;;;;22.35;9.80;;;-2.20;99.90;;;;;;4231512;28;20040;-85
2022/11/21 06:21:11;;;;;;;22.20;9.52;;;-0.90;99.90;;;;;;4230390;28;20044;-84
2022/11/21 06:23:14;;;;;;;23.45;9.25;;;0.40;99.90;;;;;;4244275;28;20423;-85
2022/11/21 06:25:15;;;;;;;22.55;9.20;;;-0.90;99.90;;;;;;4242667;28;20546;-84
2022/11/21 06:27:16;;;;;;;20.73;9.05;;;-0.90;99.90;;;;;;4226633;28;20079;-84
2022/11/21 06:29:26;;;;;;;23.40;9.32;;;0.40;99.90;;;;;;4244486;28;20040;-85
2022/11/21 06:31:27;;;;;;;23.38;9.75;;;-0.90;99.90;;;;;;4226280;28;20044;-84
2022/11/21 06:33:28;;;;;;;18.77;8.60;;;-0.90;99.90;;;;;;4244063;28;20047;-86
2022/11/21 06:35:37;;;;;;;18.30;8.45;;;-1.00;99.90;;;;;;4246033;28;20047;-85
2022/11/21 06:37:44;;;;;;;24.27;9.82;;;-1.00;99.90;;;;;;4243894;28;20040;-85
2022/11/21 06:39:47;;;;;;;24.55;11.07;;;-1.10;99.90;;;;;;4242269;28;20044;-85
2022/11/21 06:41:55;;;;;;;22.05;10.20;;;-1.10;99.90;;;;;;4226936;28;20404;-85
2022/11/21 06:44:03;;;;;;;23.83;10.25;;;-1.10;99.90;;;;;;4244496;28;20059;-85
2022/11/21 06:46:05;;;;;;;23.30;10.23;;;-1.10;99.90;;;;;;4244233;28;20572;-84
2022/11/21 06:48:13;;;;;;;25.38;10.70;;;-1.20;99.90;;;;;;4262436;27;20118;-85
2022/11/21 06:50:16;;;;;;;22.98;10.95;;;-1.20;99.90;;;;;;4221036;28;20048;-85
2022/11/21 06:52:19;;;;;;;25.17;10.75;;;-1.20;99.90;;;;;;4208765;28;20114;-85
2022/11/21 06:54:25;;;;;;;22.83;11.02;;;0.20;99.90;;;;;;4210536;28;20060;-85
2022/11/21 06:56:31;;;;;;;22.35;11.15;;;-1.20;99.90;;;;;;4221134;28;20040;-84
2022/11/21 06:58:35;;;;;;;25.98;11.80;;;-0.60;99.90;;;;;;4242990;28;20553;-84
2022/11/21 07:00:37;;;;;;;27.65;11.73;;;-1.30;99.90;;;;;;4243543;28;20060;-85
2022/11/21 07:02:50;;;;;;;28.50;12.10;;;-1.20;99.90;;;;;;4227054;28;20044;-84
2022/11/21 07:04:52;;;;;;;23.70;11.13;;;-1.20;99.90;;;;;;4245144;28;20043;-83
2022/11/21 07:06:54;;;;;;;25.45;10.55;;;-1.20;99.90;;;;;;4227075;28;20040;-85
2022/11/21 07:09:04;;;;;;;25.02;10.50;;;0.10;99.90;;;;;;4227327;28;20056;-84
2022/11/21 07:11:09;;;;;;;25.38;10.70;;;-1.20;99.90;;;;;;4256850;27;20043;-84
2022/11/21 07:13:20;;;;;;;23.40;11.30;;;0.10;99.90;;;;;;4243853;28;20063;-84
2022/11/21 07:15:23;;;;;;;26.55;12.07;;;-0.40;99.90;;;;;;4244044;28;20059;-84
2022/11/21 07:17:28;;;;;;;24.17;11.70;;;-0.70;99.90;;;;;;4244090;28;20050;-84
2022/11/21 07:19:31;;;;;;;23.95;11.38;;;-1.30;99.90;;;;;;4244356;28;20063;-84
2022/11/21 07:21:33;;;;;;;23.95;11.20;;;-1.30;99.90;;;;;;4244256;28;20028;-85
2022/11/21 07:23:37;;;;;;;24.67;10.70;;;-1.30;99.90;;;;;;4243369;28;20046;-84
2022/11/21 07:25:40;;;;;;;25.83;10.65;;;-1.10;99.90;;;;;;4227484;28;20044;-84
2022/11/21 07:27:46;;;;;;;23.85;11.30;;;-1.10;99.90;;;;;;4226873;28;20051;-84
2022/11/21 07:29:50;;;;;;;24.08;10.60;;;-1.00;99.90;;;;;;4244931;28;20036;-84
2022/11/21 07:31:57;;;;;;;25.15;11.88;;;-0.80;99.90;;;;;;4244968;28;20067;-85
2022/11/21 07:34:04;;;;;;;27.80;11.60;;;-1.10;99.90;;;;;;4243286;28;20040;-85
2022/11/21 07:36:11;;;;;;;23.10;11.32;;;-1.00;99.90;;;;;;4242902;28;20051;-85
2022/11/21 07:38:16;;;;;;;29.30;12.40;;;-1.00;99.90;;;;;;4227015;28;20054;-85
2022/11/21 07:40:19;;;;;;;31.08;12.10;;;-0.70;99.90;;;;;;4243126;28;20449;-84
2022/11/21 07:42:25;;;;;;;30.30;12.05;;;-1.70;99.90;;;;;;4243736;28;20059;-85
2022/11/21 07:44:29;;;;;;;28.40;11.90;;;-0.90;99.90;;;;;;4226280;28;20051;-88
2022/11/21 07:46:31;;;;;;;28.77;12.00;;;-0.90;99.90;;;;;;4242882;28;20074;-85
2022/11/21 07:48:37;;;;;;;28.98;12.60;;;-0.90;99.90;;;;;;4243975;28;20050;-85
2022/11/21 07:50:39;;;;;;;29.27;11.75;;;-0.90;99.90;;;;;;4237113;28;20048;-84
2022/11/21 07:52:41;;;;;;;33.33;14.48;;;-0.30;99.90;;;;;;4226782;28;20058;-85
2022/11/21 07:54:46;;;;;;;26.08;11.02;;;0.70;99.90;;;;;;4227470;28;20048;-84
2022/11/21 07:56:57;;;;;;;32.17;12.63;;;-1.70;99.90;;;;;;4227511;28;20083;-84
2022/11/21 07:59:00;;;;;;;31.85;14.65;;;-1.90;99.90;;;;;;4237657;28;20081;-84
2022/11/21 08:01:05;;;;;;;33.03;13.90;;;1.40;99.90;;;;;;4224582;28;20048;-84
2022/11/21 08:03:07;;;;;;;29.13;12.70;;;-0.40;99.90;;;;;;4217927;28;20063;-85
2022/11/21 08:05:14;;;;;;;27.20;11.43;;;0.80;99.90;;;;;;4207773;28;20045;-85
2022/11/21 08:07:25;;;;;;;30.83;12.60;;;-0.70;99.90;;;;;;4228021;28;20079;-84
2022/11/21 08:09:35;;;;;;;31.97;13.67;;;0.10;99.90;;;;;;4225162;28;20532;-84
2022/11/21 08:11:36;;;;;;;34.00;15.20;;;-0.70;99.90;;;;;;4242434;28;20340;-83
2022/11/21 08:13:37;;;;;;;32.13;13.52;;;-0.50;99.90;;;;;;4254511;27;20043;-84
2022/11/21 08:15:40;;;;;;;35.45;15.52;;;-0.50;99.90;;;;;;4243566;28;20043;-84
2022/11/21 08:17:45;;;;;;;37.75;13.75;;;-1.00;99.90;;;;;;4227145;28;20047;-84
2022/11/21 08:19:57;;;;;;;31.25;13.43;;;-1.20;99.90;;;;;;4235162;28;20112;-84
2022/11/21 08:22:05;;;;;;;32.15;13.35;;;-0.50;99.90;;;;;;4245978;28;20047;-84
2022/11/21 08:24:13;;;;;;;30.15;13.43;;;-0.70;99.90;;;;;;4210947;28;20082;-84
2022/11/21 08:26:17;;;;;;;32.83;13.85;;;-0.10;99.90;;;;;;4243435;28;20071;-85
2022/11/21 08:28:19;;;;;;;33.33;13.77;;;-0.10;99.90;;;;;;4230648;28;20052;-85
2022/11/21 08:30:21;;;;;;;32.95;13.77;;;1.10;99.90;;;;;;4240476;28;20146;-85
2022/11/21 08:32:22;;;;;;;28.65;13.60;;;0.70;99.90;;;;;;4240040;28;20048;-84
2022/11/21 08:34:22;;;;;;;30.75;13.75;;;1.20;99.90;;;;;;4245254;27;20047;-85
2022/11/21 08:36:29;;;;;;;30.75;13.52;;;1.60;99.90;;;;;;4256186;27;20045;-85
2022/11/21 08:38:30;;;;;;;26.25;12.35;;;2.50;99.90;;;;;;4254454;27;20493;-87
2022/11/21 08:40:31;;;;;;;24.17;11.90;;;2.30;99.90;;;;;;4254020;27;20119;-84
2022/11/21 08:42:32;;;;;;;24.70;12.38;;;2.70;99.90;;;;;;4252204;27;20445;-84
2022/11/21 08:44:34;;;;;;;35.42;13.00;;;3.00;99.90;;;;;;4252029;27;20058;-83
2022/11/21 08:46:38;;;;;;;27.55;12.30;;;4.20;99.90;;;;;;4247923;27;20091;-84
2022/11/21 08:48:39;;;;;;;29.63;12.40;;;3.10;99.90;;;;;;4228563;28;20130;-85
2022/11/21 08:50:40;;;;;;;30.30;12.70;;;4.00;99.90;;;;;;4233522;28;20043;-84
2022/11/21 08:52:42;;;;;;;26.25;13.35;;;3.10;99.90;;;;;;4233178;28;20063;-84
2022/11/21 08:54:44;;;;;;;25.98;11.05;;;2.70;99.90;;;;;;4234284;28;20099;-85
2022/11/21 08:56:46;;;;;;;27.17;11.45;;;2.50;99.90;;;;;;4234673;28;20546;-85
2022/11/21 08:58:47;;;;;;;24.35;11.90;;;2.10;99.90;;;;;;4218050;28;20157;-83
2022/11/21 09:00:48;;;;;;;27.25;13.65;;;1.80;99.90;;;;;;4235535;28;20035;-84
2022/11/21 09:02:49;;;;;;;24.83;10.48;;;2.70;99.90;;;;;;4254440;27;20058;-84
2022/11/21 09:04:52;;;;;;;23.20;11.57;;;2.50;99.90;;;;;;4254916;27;20039;-84
2022/11/21 09:06:54;;;;;;;26.80;11.73;;;1.40;99.90;;;;;;4237776;28;20043;-83
2022/11/21 09:08:59;;;;;;;25.77;11.68;;;1.10;99.90;;;;;;4223293;27;20043;-84
2022/11/21 09:11:09;;;;;;;27.35;11.45;;;1.30;99.90;;;;;;4256445;27;20111;-84
2022/11/21 09:13:11;;;;;;;27.15;12.07;;;0.90;99.90;;;;;;4218744;28;20478;-85
2022/11/21 09:19:53;;;;;;;29.75;14.45;;;0.80;99.90;;;;;;4230531;28;20067;-84
2022/11/21 09:21:56;;;;;;;28.98;12.40;;;1.20;99.90;;;;;;4239366;28;20407;-84
2022/11/21 09:23:57;;;;;;;26.13;11.90;;;0.80;99.90;;;;;;4206743;28;20033;-85
2022/11/21 09:25:59;;;;;;;29.35;12.40;;;0.80;99.90;;;;;;4255525;27;20042;-85
2022/11/21 09:28:07;;;;;;;27.02;13.07;;;0.70;99.90;;;;;;4256514;27;20065;-84
2022/11/21 09:30:10;;;;;;;28.48;12.70;;;2.30;99.90;;;;;;4244424;27;20057;-85
2022/11/21 09:32:13;;;;;;;29.42;14.00;;;0.80;99.90;;;;;;4214981;28;20114;-85
2022/11/21 09:34:14;;;;;;;28.98;12.10;;;0.80;99.90;;;;;;4238778;28;20164;-85
2022/11/21 09:36:15;;;;;;;26.17;11.90;;;0.80;99.90;;;;;;4238732;28;20106;-85
2022/11/21 09:38:17;;;;;;;24.25;11.38;;;0.80;99.90;;;;;;4238433;28;20498;-86
2022/11/21 09:40:18;;;;;;;31.52;13.48;;;0.70;99.90;;;;;;4226494;28;20119;-84
2022/11/21 09:42:40;;;;;;;26.95;12.57;;;0.30;99.90;;;;;;4221774;28;20123;-85
2022/11/21 09:45:00;;;;;;;29.40;12.10;;;1.50;99.90;;;;;;4220907;28;20075;-84
2022/11/21 09:47:25;;;;;;;26.20;11.38;;;1.00;99.90;;;;;;4231562;28;20044;-84
2022/11/21 09:49:27;;;;;;;26.38;12.38;;;0.90;99.90;;;;;;4255866;28;20073;-84
2022/11/21 09:51:38;;;;;;;23.88;11.82;;;2.90;99.90;;;;;;4220530;28;20051;-84
2022/11/21 09:54:00;;;;;;;25.95;11.15;;;2.40;99.90;;;;;;4221255;28;20044;-85
2022/11/21 09:56:20;;;;;;;31.02;12.90;;;0.90;99.90;;;;;;4237063;28;20066;-86
2022/11/21 09:58:42;;;;;;;24.70;11.48;;;1.10;99.90;;;;;;4209907;28;20082;-84
2022/11/21 10:00:42;;;;;;;24.58;11.70;;;0.20;99.90;;;;;;4237096;28;20055;-84
2022/11/21 10:02:44;;;;;;;28.27;12.82;;;1.10;99.90;;;;;;4236446;28;20044;-83
2022/11/21 10:04:48;;;;;;;25.23;12.18;;;1.20;99.90;;;;;;4252404;28;20135;-83
2022/11/21 10:06:54;;;;;;;24.85;12.88;;;1.50;99.90;;;;;;4236819;28;20050;-86
2022/11/21 10:09:10;;;;;;;24.77;11.93;;;1.40;99.90;;;;;;4220141;28;20055;-84
2022/11/21 10:11:25;;;;;;;32.13;11.98;;;1.50;99.90;;;;;;4249053;28;20483;-84
2022/11/21 10:13:38;;;;;;;26.27;11.43;;;1.50;99.90;;;;;;4226044;28;20056;-84
2022/11/21 10:15:59;;;;;;;24.38;12.07;;;1.70;99.90;;;;;;4231211;28;20468;-85
2022/11/21 10:18:44;;;;;;;29.02;12.43;;;0.60;99.90;;;;;;4220173;28;20136;-84
2022/11/21 10:21:10;;;;;;;26.17;12.10;;;1.80;99.90;;;;;;4217885;28;20129;-83
2022/11/21 10:23:17;;;;;;;28.65;12.95;;;1.80;99.90;;;;;;4232558;28;20039;-84
2022/11/21 10:25:31;;;;;;;27.45;13.27;;;2.20;99.90;;;;;;4218225;28;20062;-84
2022/11/21 10:27:45;;;;;;;26.35;12.05;;;2.20;99.90;;;;;;4222891;28;20493;-84
2022/11/21 10:29:52;;;;;;;25.42;11.77;;;2.20;99.90;;;;;;4219303;28;20052;-84
2022/11/21 10:32:00;;;;;;;22.20;10.38;;;2.20;99.90;;;;;;4229695;28;20054;-84
2022/11/21 10:34:08;;;;;;;21.75;10.52;;;2.80;99.90;;;;;;4235095;28;20047;-85
2022/11/21 10:36:12;;;;;;;24.85;10.93;;;2.40;99.90;;;;;;4235546;28;20058;-85
2022/11/21 10:38:24;;;;;;;22.83;12.18;;;2.60;99.90;;;;;;4233655;28;20542;-84
2022/11/21 10:40:43;;;;;;;22.50;11.65;;;2.60;99.90;;;;;;4217127;28;20048;-85
2022/11/21 10:42:59;;;;;;;26.17;10.40;;;2.20;99.90;;;;;;4221160;28;20043;-85
2022/11/21 10:45:17;;;;;;;23.95;11.05;;;2.70;99.90;;;;;;4231435;28;20047;-86
2022/11/21 10:47:28;;;;;;;23.45;11.18;;;2.80;99.90;;;;;;4219616;28;20036;-85
2022/11/21 10:49:33;;;;;;;24.30;10.68;;;2.80;99.90;;;;;;4234797;28;20048;-85
2022/11/21 10:51:55;;;;;;;21.58;10.00;;;3.60;99.90;;;;;;4235987;28;20049;-85
2022/11/21 10:56:34;;;;;;;23.52;11.52;;;2.50;99.90;;;;;;4237142;28;20539;-85
2022/11/21 10:58:42;;;;;;;25.50;10.98;;;2.50;99.90;;;;;;4237525;28;20097;-85